createdAt,value
2018-05-07T00:00:22.161Z,0.00
2018-05-07T00:01:22.332Z,0.00
2018-05-07T00:02:22.513Z,0.00
2018-05-07T00:03:22.689Z,0.00
2018-05-07T00:04:22.871Z,0.00
2018-05-07T00:05:23.044Z,0.00
2018-05-07T00:06:23.235Z,0.00
2018-05-07T00:07:23.423Z,0.00
2018-05-07T00:08:23.597Z,0.00
2018-05-07T00:09:23.783Z,0.00
2018-05-07T00:10:23.961Z,0.00
2018-05-07T00:11:24.133Z,0.00
2018-05-07T00:12:24.306Z,0.00
2018-05-07T00:13:24.493Z,0.00
2018-05-07T00:14:24.676Z,0.00
2018-05-07T00:15:24.857Z,0.00
2018-05-07T00:16:25.037Z,0.00
2018-05-07T00:17:25.225Z,0.00
2018-05-07T00:18:25.403Z,0.00
2018-05-07T00:19:25.582Z,0.00
2018-05-07T00:20:25.761Z,0.00
2018-05-07T00:21:25.938Z,0.00
2018-05-07T00:22:26.214Z,0.00
2018-05-07T00:23:26.303Z,0.00
2018-05-07T00:24:26.489Z,0.00
2018-05-07T00:25:26.646Z,0.00
2018-05-07T00:26:26.819Z,0.00
2018-05-07T00:27:27.003Z,0.00
2018-05-07T00:28:27.182Z,0.00
2018-05-07T00:29:27.371Z,0.00
2018-05-07T00:30:27.538Z,0.00
2018-05-07T00:31:27.713Z,0.00
2018-05-07T00:32:27.894Z,0.00
2018-05-07T00:33:28.073Z,0.00
2018-05-07T00:34:28.258Z,0.00
2018-05-07T00:35:28.434Z,0.00
2018-05-07T00:36:28.614Z,0.00
2018-05-07T00:37:28.792Z,0.00
2018-05-07T00:38:28.967Z,0.00
2018-05-07T00:39:29.155Z,0.00
2018-05-07T00:40:29.334Z,0.00
2018-05-07T00:41:29.515Z,0.00
2018-05-07T00:42:29.697Z,0.00
2018-05-07T00:43:29.865Z,0.00
2018-05-07T00:44:30.047Z,0.00
2018-05-07T00:45:30.221Z,0.00
2018-05-07T00:46:30.399Z,0.00
2018-05-07T00:47:30.595Z,0.00
2018-05-07T00:48:30.773Z,0.00
2018-05-07T00:49:30.955Z,0.00
2018-05-07T00:50:31.166Z,0.00
2018-05-07T00:51:31.305Z,0.00
2018-05-07T00:52:31.489Z,0.00
2018-05-07T00:53:31.669Z,0.00
2018-05-07T00:54:31.856Z,0.00
2018-05-07T00:55:32.026Z,0.00
2018-05-07T00:56:32.203Z,0.00
2018-05-07T00:57:32.383Z,0.00
2018-05-07T00:58:32.570Z,0.00
2018-05-07T00:59:32.741Z,0.00
2018-05-07T01:00:32.921Z,0.00
2018-05-07T01:01:33.098Z,0.00
2018-05-07T01:02:33.277Z,0.00
2018-05-07T01:03:33.456Z,0.00
2018-05-07T01:04:33.637Z,0.00
2018-05-07T01:05:33.817Z,0.00
2018-05-07T01:06:33.999Z,0.00
2018-05-07T01:07:34.183Z,0.00
2018-05-07T01:08:34.601Z,0.00
2018-05-07T01:09:34.534Z,0.00
2018-05-07T01:10:34.719Z,0.00
2018-05-07T01:11:34.887Z,0.00
2018-05-07T01:12:35.069Z,0.00
2018-05-07T01:13:35.245Z,0.00
2018-05-07T01:14:35.426Z,0.00
2018-05-07T01:15:35.615Z,0.00
2018-05-07T01:16:35.786Z,0.00
2018-05-07T01:17:35.970Z,0.00
2018-05-07T01:18:36.147Z,0.00
2018-05-07T01:19:36.329Z,0.00
2018-05-07T01:20:36.507Z,0.00
2018-05-07T01:21:36.685Z,0.00
2018-05-07T01:22:36.864Z,0.00
2018-05-07T01:23:37.045Z,0.00
2018-05-07T01:24:37.228Z,0.00
2018-05-07T01:25:37.409Z,0.00
2018-05-07T01:26:37.580Z,0.00
2018-05-07T01:27:37.759Z,0.00
2018-05-07T01:28:37.946Z,0.00
2018-05-07T01:29:38.124Z,0.00
2018-05-07T01:30:38.298Z,0.00
2018-05-07T01:31:38.484Z,0.00
2018-05-07T01:32:38.659Z,0.00
2018-05-07T01:33:38.833Z,0.00
2018-05-07T01:34:39.012Z,0.00
2018-05-07T01:35:39.192Z,0.00
2018-05-07T01:36:39.369Z,0.00
2018-05-07T01:37:39.541Z,0.00
2018-05-07T01:38:39.721Z,0.00
2018-05-07T01:39:39.897Z,0.00
2018-05-07T01:40:40.077Z,0.00
2018-05-07T01:41:40.253Z,0.00
2018-05-07T01:42:40.440Z,0.00
2018-05-07T01:43:40.612Z,0.00
2018-05-07T01:44:40.795Z,0.00
2018-05-07T01:45:40.970Z,0.00
2018-05-07T01:46:41.151Z,0.00
2018-05-07T01:47:41.328Z,0.00
2018-05-07T01:48:41.507Z,0.00
2018-05-07T01:49:41.686Z,0.00
2018-05-07T01:50:41.865Z,0.00
2018-05-07T01:51:42.042Z,0.00
2018-05-07T01:52:42.236Z,0.00
2018-05-07T01:53:42.401Z,0.00
2018-05-07T01:54:42.583Z,0.00
2018-05-07T01:55:42.781Z,0.00
2018-05-07T01:56:42.927Z,0.00
2018-05-07T01:57:43.110Z,0.00
2018-05-07T01:58:43.277Z,0.00
2018-05-07T01:59:43.454Z,0.00
2018-05-07T02:00:43.633Z,0.00
2018-05-07T02:01:43.814Z,0.00
2018-05-07T02:02:44.008Z,0.00
2018-05-07T02:03:44.428Z,0.00
2018-05-07T02:04:44.353Z,0.00
2018-05-07T02:05:44.530Z,0.00
2018-05-07T02:06:44.696Z,0.00
2018-05-07T02:07:44.891Z,0.00
2018-05-07T02:08:45.072Z,0.00
2018-05-07T02:09:45.250Z,0.00
2018-05-07T02:10:45.673Z,0.00
2018-05-07T02:11:45.606Z,0.00
2018-05-07T02:12:45.789Z,0.00
2018-05-07T02:13:45.963Z,0.00
2018-05-07T02:14:46.144Z,0.00
2018-05-07T02:15:46.314Z,0.00
2018-05-07T02:16:46.495Z,0.00
2018-05-07T02:17:46.675Z,0.00
2018-05-07T02:18:46.862Z,0.00
2018-05-07T02:19:47.283Z,0.00
2018-05-07T02:20:47.210Z,0.00
2018-05-07T02:21:47.386Z,0.00
2018-05-07T02:22:47.564Z,0.00
2018-05-07T02:23:47.744Z,0.00
2018-05-07T02:24:47.929Z,0.00
2018-05-07T02:25:48.106Z,0.00
2018-05-07T02:26:48.288Z,0.00
2018-05-07T02:27:48.466Z,0.00
2018-05-07T02:28:48.638Z,0.00
2018-05-07T02:29:48.827Z,0.00
2018-05-07T02:30:48.988Z,0.00
2018-05-07T02:31:49.174Z,0.00
2018-05-07T02:32:49.352Z,0.00
2018-05-07T02:33:49.536Z,0.00
2018-05-07T02:34:49.720Z,0.00
2018-05-07T02:35:49.889Z,0.00
2018-05-07T02:36:50.069Z,0.00
2018-05-07T02:37:50.246Z,0.00
2018-05-07T02:38:50.428Z,0.00
2018-05-07T02:40:50.782Z,0.00
2018-05-07T02:41:50.953Z,0.00
2018-05-07T02:42:51.133Z,0.00
2018-05-07T02:43:51.315Z,0.00
2018-05-07T02:44:51.487Z,0.00
2018-05-07T02:45:51.664Z,0.00
2018-05-07T02:46:52.165Z,0.00
2018-05-07T02:47:52.019Z,0.00
2018-05-07T02:48:52.209Z,0.00
2018-05-07T02:50:52.552Z,0.00
2018-05-07T02:51:52.728Z,0.00
2018-05-07T02:52:52.906Z,0.00
2018-05-07T02:53:53.085Z,0.00
2018-05-07T02:54:53.266Z,0.00
2018-05-07T02:55:53.442Z,0.00
2018-05-07T02:56:53.615Z,0.00
2018-05-07T02:57:53.792Z,0.00
2018-05-07T02:58:53.970Z,0.00
2018-05-07T02:59:54.149Z,0.00
2018-05-07T03:00:54.389Z,0.00
2018-05-07T03:01:54.509Z,0.00
2018-05-07T03:02:54.676Z,0.00
2018-05-07T03:03:54.855Z,0.00
2018-05-07T03:04:55.044Z,0.00
2018-05-07T03:05:55.208Z,0.00
2018-05-07T03:06:55.396Z,0.00
2018-05-07T03:07:55.570Z,0.00
2018-05-07T03:08:55.744Z,0.00
2018-05-07T03:09:55.926Z,0.00
2018-05-07T03:10:56.099Z,0.00
2018-05-07T03:11:56.276Z,0.00
2018-05-07T03:12:56.459Z,0.00
2018-05-07T03:13:56.639Z,0.00
2018-05-07T03:14:56.825Z,0.00
2018-05-07T03:15:56.995Z,0.00
2018-05-07T03:16:57.174Z,0.00
2018-05-07T03:17:57.349Z,0.00
2018-05-07T03:18:57.528Z,0.00
2018-05-07T03:19:57.707Z,0.00
2018-05-07T03:20:57.881Z,0.00
2018-05-07T03:21:58.059Z,0.00
2018-05-07T03:22:58.228Z,0.00
2018-05-07T03:23:58.411Z,0.00
2018-05-07T03:24:58.594Z,0.00
2018-05-07T03:25:58.766Z,0.00
2018-05-07T03:26:58.951Z,0.00
2018-05-07T03:27:59.128Z,0.00
2018-05-07T03:28:59.302Z,0.00
2018-05-07T03:29:59.486Z,5.63
2018-05-07T03:30:59.659Z,5.63
2018-05-07T03:31:59.838Z,5.63
2018-05-07T03:33:00.015Z,5.63
2018-05-07T03:34:00.447Z,5.63
2018-05-07T03:35:00.368Z,5.63
2018-05-07T03:36:00.549Z,5.63
2018-05-07T03:37:00.731Z,11.25
2018-05-07T03:38:00.904Z,11.25
2018-05-07T03:39:01.082Z,11.25
2018-05-07T03:40:01.265Z,11.25
2018-05-07T03:41:01.440Z,11.25
2018-05-07T03:42:01.613Z,16.88
2018-05-07T03:43:01.792Z,16.88
2018-05-07T03:44:01.973Z,16.88
2018-05-07T03:45:02.147Z,16.88
2018-05-07T03:46:02.326Z,22.50
2018-05-07T03:48:02.673Z,22.50
2018-05-07T03:49:02.854Z,28.13
2018-05-07T03:50:03.025Z,28.13
2018-05-07T03:51:03.211Z,28.13
2018-05-07T03:52:03.389Z,33.75
2018-05-07T03:53:03.564Z,33.75
2018-05-07T03:54:03.742Z,33.75
2018-05-07T03:55:03.917Z,39.38
2018-05-07T03:56:04.090Z,39.38
2018-05-07T03:57:04.275Z,45.00
2018-05-07T03:58:04.449Z,45.00
2018-05-07T03:59:04.628Z,50.63
2018-05-07T04:00:04.804Z,50.63
2018-05-07T04:01:04.982Z,56.25
2018-05-07T04:02:05.163Z,56.25
2018-05-07T04:03:05.339Z,61.88
2018-05-07T04:04:05.516Z,61.88
2018-05-07T04:05:05.696Z,67.50
2018-05-07T04:06:05.874Z,67.50
2018-05-07T04:07:06.045Z,73.13
2018-05-07T04:08:06.236Z,73.13
2018-05-07T04:09:06.485Z,78.75
2018-05-07T04:10:06.582Z,84.38
2018-05-07T04:11:06.757Z,84.38
2018-05-07T04:12:06.939Z,90.00
2018-05-07T04:13:07.188Z,95.63
2018-05-07T04:14:07.294Z,101.25
2018-05-07T04:15:07.467Z,101.25
2018-05-07T04:16:07.648Z,106.88
2018-05-07T04:17:07.823Z,180.00
2018-05-07T04:18:08.002Z,309.38
2018-05-07T04:19:08.184Z,281.25
2018-05-07T04:20:08.359Z,489.38
2018-05-07T04:21:08.536Z,776.25
2018-05-07T04:22:08.717Z,883.13
2018-05-07T04:23:08.893Z,1181.25
2018-05-07T04:24:09.078Z,1530.00
2018-05-07T04:25:09.257Z,1620.00
2018-05-07T04:26:09.437Z,1687.50
2018-05-07T04:27:09.610Z,1732.50
2018-05-07T04:28:09.784Z,1783.13
2018-05-07T04:29:09.959Z,1833.75
2018-05-07T04:30:10.141Z,1878.75
2018-05-07T04:31:10.659Z,1929.38
2018-05-07T04:32:10.492Z,1974.38
2018-05-07T04:33:10.672Z,2025.00
2018-05-07T04:34:10.856Z,2070.00
2018-05-07T04:35:11.029Z,2109.38
2018-05-07T04:36:11.222Z,2160.00
2018-05-07T04:37:11.403Z,2210.63
2018-05-07T04:38:11.585Z,2255.63
2018-05-07T04:39:11.755Z,2311.88
2018-05-07T04:40:11.947Z,2356.88
2018-05-07T04:41:12.126Z,2385.00
2018-05-07T04:42:12.296Z,2413.13
2018-05-07T04:43:12.518Z,2446.88
2018-05-07T04:44:12.660Z,2486.25
2018-05-07T04:45:12.843Z,2525.63
2018-05-07T04:46:13.031Z,2553.75
2018-05-07T04:47:13.216Z,2581.88
2018-05-07T04:48:13.396Z,2621.25
2018-05-07T04:49:13.583Z,2649.38
2018-05-07T04:50:13.763Z,2671.88
2018-05-07T04:51:13.950Z,2716.88
2018-05-07T04:52:14.204Z,2745.00
2018-05-07T04:53:14.329Z,2790.00
2018-05-07T04:54:14.513Z,2812.50
2018-05-07T04:55:14.695Z,2846.25
2018-05-07T04:56:14.888Z,2874.38
2018-05-07T04:57:15.069Z,2891.25
2018-05-07T04:58:15.256Z,2919.38
2018-05-07T04:59:15.440Z,2941.88
2018-05-07T05:00:15.637Z,2970.00
2018-05-07T05:01:15.819Z,2992.50
2018-05-07T05:02:16.014Z,3037.50
2018-05-07T05:03:16.195Z,3037.50
2018-05-07T05:04:16.389Z,3076.88
2018-05-07T05:06:16.850Z,3133.13
2018-05-07T05:07:16.959Z,3178.13
2018-05-07T05:08:17.119Z,3195.00
2018-05-07T05:09:17.310Z,3223.13
2018-05-07T05:10:17.498Z,3234.38
2018-05-07T05:11:17.687Z,3262.50
2018-05-07T05:12:17.876Z,3296.25
2018-05-07T05:13:18.064Z,3324.38
2018-05-07T05:14:18.253Z,3363.75
2018-05-07T05:15:18.450Z,3380.63
2018-05-07T05:16:18.633Z,3414.38
2018-05-07T05:17:18.815Z,3425.63
2018-05-07T05:18:18.995Z,3442.50
2018-05-07T05:19:19.241Z,3465.00
2018-05-07T05:20:19.377Z,3487.50
2018-05-07T05:21:19.613Z,3521.25
2018-05-07T05:22:19.750Z,3526.88
2018-05-07T05:23:19.938Z,3532.50
2018-05-07T05:24:20.124Z,3549.38
2018-05-07T05:25:20.314Z,3549.38
2018-05-07T05:26:20.562Z,3566.25
2018-05-07T05:27:20.765Z,3577.50
2018-05-07T05:28:20.887Z,3594.38
2018-05-07T05:29:21.075Z,3605.63
2018-05-07T05:30:21.268Z,3616.88
2018-05-07T05:31:21.466Z,3600.00
2018-05-07T05:32:21.670Z,3611.25
2018-05-07T05:33:21.841Z,3616.88
2018-05-07T05:34:22.032Z,3622.50
2018-05-07T05:35:22.524Z,3645.00
2018-05-07T05:36:22.411Z,3645.00
2018-05-07T05:37:22.665Z,3633.75
2018-05-07T05:38:22.794Z,3650.63
2018-05-07T05:39:22.985Z,3661.88
2018-05-07T05:40:23.169Z,3673.13
2018-05-07T05:41:23.361Z,3645.00
2018-05-07T05:42:23.550Z,3645.00
2018-05-07T05:43:23.740Z,3639.38
2018-05-07T05:44:23.928Z,3639.38
2018-05-07T05:45:24.118Z,3656.25
2018-05-07T05:46:24.309Z,3639.38
2018-05-07T05:48:24.688Z,3622.50
2018-05-07T05:49:24.870Z,3616.88
2018-05-07T05:50:25.053Z,3611.25
2018-05-07T05:51:25.254Z,3600.00
2018-05-07T05:52:25.442Z,3594.38
2018-05-07T05:53:25.641Z,3600.00
2018-05-07T05:54:25.817Z,3605.63
2018-05-07T05:55:25.998Z,3600.00
2018-05-07T05:56:26.219Z,3583.13
2018-05-07T05:57:26.386Z,3504.38
2018-05-07T05:58:26.565Z,3431.25
2018-05-07T05:59:26.756Z,3414.38
2018-05-07T06:00:26.960Z,3515.63
2018-05-07T06:01:27.136Z,3543.75
2018-05-07T06:02:27.339Z,3465.00
2018-05-07T06:03:27.523Z,3403.13
2018-05-07T06:04:27.705Z,3442.50
2018-05-07T06:05:27.924Z,3465.00
2018-05-07T06:06:28.107Z,3504.38
2018-05-07T06:07:28.296Z,3476.25
2018-05-07T06:09:28.671Z,3476.25
2018-05-07T06:10:28.862Z,3459.38
2018-05-07T06:11:29.050Z,3442.50
2018-05-07T06:12:29.241Z,3425.63
2018-05-07T06:13:29.429Z,3408.75
2018-05-07T06:14:29.722Z,3330.00
2018-05-07T06:15:29.812Z,3223.13
2018-05-07T06:16:30.013Z,3206.25
2018-05-07T06:17:30.183Z,3048.75
2018-05-07T06:18:30.374Z,3043.13
2018-05-07T06:19:30.568Z,3020.63
2018-05-07T06:20:30.762Z,3009.38
2018-05-07T06:21:30.950Z,2992.50
2018-05-07T06:22:31.139Z,2992.50
2018-05-07T06:23:31.334Z,2981.25
2018-05-07T06:24:31.529Z,2975.63
2018-05-07T06:25:31.752Z,2981.25
2018-05-07T06:26:31.899Z,2975.63
2018-05-07T06:27:32.087Z,2981.25
2018-05-07T06:28:32.283Z,2992.50
2018-05-07T06:29:32.477Z,3020.63
2018-05-07T06:30:32.669Z,3020.63
2018-05-07T06:31:32.858Z,2986.88
2018-05-07T06:32:33.041Z,2964.38
2018-05-07T06:33:33.256Z,2947.50
2018-05-07T06:34:33.412Z,2930.63
2018-05-07T06:35:33.600Z,2913.75
2018-05-07T06:36:33.798Z,2902.50
2018-05-07T06:37:33.986Z,2896.88
2018-05-07T06:38:34.183Z,2885.63
2018-05-07T06:39:34.367Z,2880.00
2018-05-07T06:40:34.558Z,2868.75
2018-05-07T06:41:34.753Z,2857.50
2018-05-07T06:42:34.941Z,2851.88
2018-05-07T06:43:35.132Z,2851.88
2018-05-07T06:44:35.322Z,2840.63
2018-05-07T06:45:35.520Z,2835.00
2018-05-07T06:46:35.702Z,2840.63
2018-05-07T06:47:35.895Z,2823.75
2018-05-07T06:48:36.083Z,2812.50
2018-05-07T06:49:36.281Z,2801.25
2018-05-07T06:50:36.491Z,2818.13
2018-05-07T06:51:36.651Z,2868.75
2018-05-07T06:52:36.843Z,2919.38
2018-05-07T06:53:37.019Z,2930.63
2018-05-07T06:54:37.208Z,2902.50
2018-05-07T06:55:37.405Z,2818.13
2018-05-07T06:56:37.597Z,2784.38
2018-05-07T06:57:37.794Z,2818.13
2018-05-07T06:58:37.971Z,2880.00
2018-05-07T06:59:38.168Z,2930.63
2018-05-07T07:00:38.360Z,2936.25
2018-05-07T07:01:38.549Z,2891.25
2018-05-07T07:02:38.929Z,2857.50
2018-05-07T07:03:38.931Z,2868.75
2018-05-07T07:04:39.120Z,2908.13
2018-05-07T07:05:39.316Z,2908.13
2018-05-07T07:06:39.505Z,2885.63
2018-05-07T07:07:39.692Z,2880.00
2018-05-07T07:08:40.293Z,2863.13
2018-05-07T07:09:40.123Z,2851.88
2018-05-07T07:10:40.310Z,3031.88
2018-05-07T07:11:40.493Z,3015.00
2018-05-07T07:12:40.677Z,2998.13
2018-05-07T07:13:40.871Z,2986.88
2018-05-07T07:14:41.066Z,2964.38
2018-05-07T07:15:41.258Z,2964.38
2018-05-07T07:16:41.443Z,2930.63
2018-05-07T07:17:41.630Z,2925.00
2018-05-07T07:18:41.825Z,2908.13
2018-05-07T07:19:42.016Z,2874.38
2018-05-07T07:20:42.201Z,2806.88
2018-05-07T07:21:42.452Z,2756.25
2018-05-07T07:22:42.652Z,2705.63
2018-05-07T07:23:42.803Z,2660.63
2018-05-07T07:24:43.067Z,2621.25
2018-05-07T07:25:43.176Z,2548.13
2018-05-07T07:26:43.429Z,2486.25
2018-05-07T07:27:43.705Z,2424.38
2018-05-07T07:28:43.821Z,2396.25
2018-05-07T07:29:43.986Z,2385.00
2018-05-07T07:30:44.266Z,2356.88
2018-05-07T07:31:44.324Z,2328.75
2018-05-07T07:32:44.536Z,2306.25
2018-05-07T07:33:44.800Z,2272.50
2018-05-07T07:34:44.920Z,2255.63
2018-05-07T07:36:45.405Z,2216.25
2018-05-07T07:37:45.526Z,2193.75
2018-05-07T07:38:46.276Z,2176.88
2018-05-07T07:39:45.903Z,2154.38
2018-05-07T07:40:46.092Z,2143.13
2018-05-07T07:41:46.286Z,2115.00
2018-05-07T07:42:46.481Z,2120.63
2018-05-07T07:43:46.939Z,2075.63
2018-05-07T07:44:46.862Z,2047.50
2018-05-07T07:45:47.050Z,2030.63
2018-05-07T07:46:47.254Z,2013.75
2018-05-07T07:47:47.437Z,1974.38
2018-05-07T07:48:47.628Z,1957.50
2018-05-07T07:49:47.824Z,1946.25
2018-05-07T07:50:48.015Z,1935.00
2018-05-07T07:51:48.203Z,1912.50
2018-05-07T07:52:48.394Z,1890.00
2018-05-07T07:53:48.666Z,1873.13
2018-05-07T07:54:48.782Z,1867.50
2018-05-07T07:55:48.969Z,1856.25
2018-05-07T07:56:49.159Z,1816.88
2018-05-07T07:57:49.350Z,1794.38
2018-05-07T07:58:49.546Z,1766.25
2018-05-07T07:59:49.730Z,1743.75
2018-05-07T08:00:49.921Z,1715.63
2018-05-07T08:01:50.361Z,1687.50
2018-05-07T08:02:50.306Z,1665.00
2018-05-07T08:03:50.496Z,1636.88
2018-05-07T08:04:50.690Z,1608.75
2018-05-07T08:05:50.880Z,1591.88
2018-05-07T08:06:51.067Z,1558.13
2018-05-07T08:07:51.267Z,1535.63
2018-05-07T08:08:51.458Z,1501.88
2018-05-07T08:09:51.646Z,1456.88
2018-05-07T08:10:51.838Z,1417.50
2018-05-07T08:11:52.028Z,1389.38
2018-05-07T08:12:52.220Z,1361.25
2018-05-07T08:13:52.401Z,1344.38
2018-05-07T08:14:52.663Z,1321.88
2018-05-07T08:15:53.034Z,1305.00
2018-05-07T08:16:52.981Z,1288.13
2018-05-07T08:17:53.174Z,1254.38
2018-05-07T08:18:53.363Z,1237.50
2018-05-07T08:19:53.552Z,1209.38
2018-05-07T08:20:53.758Z,1186.88
2018-05-07T08:21:53.929Z,1170.00
2018-05-07T08:22:54.134Z,1158.75
2018-05-07T08:23:54.316Z,1125.00
2018-05-07T08:24:54.507Z,1096.88
2018-05-07T08:25:54.719Z,1085.63
2018-05-07T08:26:54.889Z,1068.75
2018-05-07T08:27:55.081Z,1051.88
2018-05-07T08:28:55.273Z,1051.88
2018-05-07T08:29:55.472Z,1035.00
2018-05-07T08:30:55.671Z,1018.13
2018-05-07T08:31:55.842Z,1018.13
2018-05-07T08:32:56.033Z,1023.75
2018-05-07T08:33:56.224Z,1018.13
2018-05-07T08:34:56.442Z,1035.00
2018-05-07T08:35:56.593Z,1068.75
2018-05-07T08:36:56.782Z,1096.88
2018-05-07T08:37:56.959Z,1119.38
2018-05-07T08:38:57.156Z,1130.63
2018-05-07T08:39:57.327Z,1141.88
2018-05-07T08:40:57.513Z,1141.88
2018-05-07T08:41:57.692Z,1136.25
2018-05-07T08:42:57.891Z,1125.00
2018-05-07T08:43:58.075Z,1125.00
2018-05-07T08:44:58.296Z,1119.38
2018-05-07T08:45:58.438Z,1130.63
2018-05-07T08:46:58.712Z,1147.50
2018-05-07T08:47:58.819Z,1141.88
2018-05-07T08:48:58.997Z,1153.13
2018-05-07T08:49:59.183Z,1170.00
2018-05-07T08:50:59.462Z,1175.63
2018-05-07T08:51:59.570Z,1170.00
2018-05-07T08:52:59.830Z,1181.25
2018-05-07T08:53:59.945Z,1186.88
2018-05-07T08:55:00.150Z,1175.63
2018-05-07T08:56:00.355Z,1198.13
2018-05-07T08:57:00.530Z,1192.50
2018-05-07T08:58:00.725Z,1186.88
2018-05-07T08:59:00.917Z,1175.63
2018-05-07T09:00:01.081Z,1170.00
2018-05-07T09:01:01.280Z,1181.25
2018-05-07T09:02:01.457Z,1181.25
2018-05-07T09:03:01.642Z,1198.13
2018-05-07T09:04:01.836Z,1203.75
2018-05-07T09:05:02.276Z,1226.25
2018-05-07T09:06:02.219Z,1237.50
2018-05-07T09:07:02.405Z,1248.75
2018-05-07T09:09:02.784Z,1271.25
2018-05-07T09:10:02.975Z,1271.25
2018-05-07T09:11:03.163Z,1299.38
2018-05-07T09:12:03.365Z,1310.63
2018-05-07T09:13:03.547Z,1310.63
2018-05-07T09:14:03.737Z,1338.75
2018-05-07T09:15:03.918Z,1361.25
2018-05-07T09:16:04.109Z,1378.13
2018-05-07T09:17:04.291Z,1400.63
2018-05-07T09:18:04.480Z,1428.75
2018-05-07T09:19:04.682Z,1428.75
2018-05-07T09:20:04.868Z,1451.25
2018-05-07T09:21:05.049Z,1490.63
2018-05-07T09:22:05.228Z,1524.38
2018-05-07T09:23:05.499Z,1546.88
2018-05-07T09:24:05.586Z,1563.75
2018-05-07T09:25:05.764Z,1586.25
2018-05-07T09:26:05.947Z,1597.50
2018-05-07T09:27:06.142Z,1620.00
2018-05-07T09:28:06.571Z,1653.75
2018-05-07T09:30:06.712Z,1676.25
2018-05-07T09:31:06.889Z,1687.50
2018-05-07T09:32:09.412Z,1726.88
2018-05-07T09:33:07.255Z,1771.88
2018-05-07T09:34:07.440Z,1822.50
2018-05-07T09:35:07.792Z,1867.50
2018-05-07T09:36:07.854Z,1867.50
2018-05-07T09:37:08.195Z,1867.50
2018-05-07T09:38:08.211Z,1878.75
2018-05-07T09:39:08.485Z,1816.88
2018-05-07T09:40:08.630Z,1726.88
2018-05-07T09:41:08.779Z,1659.38
2018-05-07T09:42:08.965Z,1614.38
2018-05-07T09:43:09.240Z,1558.13
2018-05-07T09:44:09.354Z,1513.13
2018-05-07T09:45:09.488Z,1462.50
2018-05-07T09:46:09.809Z,1423.13
2018-05-07T09:47:09.831Z,1383.75
2018-05-07T09:48:10.040Z,1333.13
2018-05-07T09:49:10.218Z,1293.75
2018-05-07T09:50:10.727Z,1265.63
2018-05-07T09:51:10.606Z,1260.00
2018-05-07T09:52:10.761Z,1226.25
2018-05-07T09:53:10.947Z,1192.50
2018-05-07T09:54:11.136Z,1170.00
2018-05-07T09:55:11.296Z,1158.75
2018-05-07T09:56:11.495Z,1141.88
2018-05-07T09:57:11.645Z,1119.38
2018-05-07T09:58:11.987Z,1108.13
2018-05-07T09:59:12.094Z,1091.25
2018-05-07T10:00:14.510Z,1063.13
2018-05-07T10:01:12.556Z,1046.25
2018-05-07T10:02:12.600Z,1023.75
2018-05-07T10:03:12.777Z,990.00
2018-05-07T10:04:13.447Z,961.88
2018-05-07T10:05:13.135Z,945.00
2018-05-07T10:06:13.345Z,939.38
2018-05-07T10:07:15.596Z,838.13
2018-05-07T10:08:13.670Z,663.75
2018-05-07T10:09:13.848Z,523.13
2018-05-07T10:10:14.072Z,506.25
2018-05-07T10:11:14.221Z,500.63
2018-05-07T10:12:14.613Z,500.63
2018-05-07T10:13:14.567Z,489.38
2018-05-07T10:14:14.729Z,483.75
2018-05-07T10:15:15.023Z,478.13
2018-05-07T10:16:15.117Z,472.50
2018-05-07T10:17:15.281Z,466.88
2018-05-07T10:18:15.461Z,461.25
2018-05-07T10:19:15.646Z,455.63
2018-05-07T10:20:15.827Z,450.00
2018-05-07T10:21:16.016Z,444.38
2018-05-07T10:22:16.198Z,438.75
2018-05-07T10:23:16.374Z,433.13
2018-05-07T10:24:19.378Z,433.13
2018-05-07T10:25:22.687Z,427.50
2018-05-07T10:26:17.031Z,421.88
2018-05-07T10:27:17.249Z,416.25
2018-05-07T10:28:18.143Z,416.25
2018-05-07T10:29:17.559Z,410.63
2018-05-07T10:30:17.994Z,410.63
2018-05-07T10:31:20.669Z,410.63
2018-05-07T10:32:21.764Z,405.00
2018-05-07T10:33:18.252Z,399.38
2018-05-07T10:34:18.417Z,399.38
2018-05-07T10:35:18.706Z,393.75
2018-05-07T10:36:18.798Z,388.13
2018-05-07T10:37:18.957Z,382.50
2018-05-07T10:38:19.130Z,382.50
2018-05-07T10:39:19.300Z,376.88
2018-05-07T10:40:19.473Z,376.88
2018-05-07T10:41:19.905Z,376.88
2018-05-07T10:42:19.869Z,371.25
2018-05-07T10:43:20.062Z,371.25
2018-05-07T10:44:20.235Z,365.63
2018-05-07T10:45:20.430Z,365.63
2018-05-07T10:46:20.591Z,360.00
2018-05-07T10:47:20.767Z,360.00
2018-05-07T10:48:20.944Z,360.00
2018-05-07T10:49:21.270Z,354.38
2018-05-07T10:50:21.294Z,354.38
2018-05-07T10:51:21.475Z,354.38
2018-05-07T10:52:21.653Z,348.75
2018-05-07T10:53:21.913Z,343.13
2018-05-07T10:54:22.037Z,348.75
2018-05-07T10:55:22.208Z,343.13
2018-05-07T10:56:22.392Z,343.13
2018-05-07T10:57:22.558Z,337.50
2018-05-07T10:58:22.977Z,337.50
2018-05-07T10:59:22.920Z,337.50
2018-05-07T11:00:23.095Z,331.88
2018-05-07T11:01:23.279Z,331.88
2018-05-07T11:02:23.452Z,331.88
2018-05-07T11:03:23.643Z,331.88
2018-05-07T11:04:23.826Z,331.88
2018-05-07T11:05:24.037Z,326.25
2018-05-07T11:06:24.180Z,326.25
2018-05-07T11:07:24.443Z,326.25
2018-05-07T11:08:24.544Z,326.25
2018-05-07T11:09:24.702Z,326.25
2018-05-07T11:10:24.879Z,326.25
2018-05-07T11:11:25.050Z,320.63
2018-05-07T11:12:25.226Z,320.63
2018-05-07T11:13:25.416Z,326.25
2018-05-07T11:14:25.590Z,326.25
2018-05-07T11:15:25.752Z,320.63
2018-05-07T11:16:25.953Z,320.63
2018-05-07T11:17:26.133Z,320.63
2018-05-07T11:18:26.319Z,320.63
2018-05-07T11:19:26.498Z,331.88
2018-05-07T11:20:26.676Z,320.63
2018-05-07T11:21:26.903Z,315.00
2018-05-07T11:22:27.020Z,315.00
2018-05-07T11:23:27.221Z,315.00
2018-05-07T11:24:27.404Z,320.63
2018-05-07T11:25:27.594Z,315.00
2018-05-07T11:26:27.765Z,315.00
2018-05-07T11:27:27.939Z,315.00
2018-05-07T11:28:28.127Z,315.00
2018-05-07T11:29:28.310Z,315.00
2018-05-07T11:30:28.496Z,315.00
2018-05-07T11:31:28.677Z,315.00
2018-05-07T11:32:28.849Z,320.63
2018-05-07T11:33:29.021Z,320.63
2018-05-07T11:34:29.305Z,326.25
2018-05-07T11:35:29.428Z,326.25
2018-05-07T11:36:29.603Z,331.88
2018-05-07T11:37:29.797Z,331.88
2018-05-07T11:38:29.960Z,331.88
2018-05-07T11:39:30.129Z,331.88
2018-05-07T11:40:30.333Z,326.25
2018-05-07T11:41:30.530Z,326.25
2018-05-07T11:42:30.706Z,326.25
2018-05-07T11:43:31.068Z,326.25
2018-05-07T11:44:31.068Z,320.63
2018-05-07T11:45:31.228Z,320.63
2018-05-07T11:46:31.418Z,315.00
2018-05-07T11:47:31.667Z,315.00
2018-05-07T11:48:31.834Z,320.63
2018-05-07T11:49:31.955Z,315.00
2018-05-07T11:50:32.132Z,320.63
2018-05-07T11:51:32.321Z,320.63
2018-05-07T11:52:32.500Z,320.63
2018-05-07T11:53:32.694Z,320.63
2018-05-07T11:54:32.869Z,315.00
2018-05-07T11:55:33.055Z,315.00
2018-05-07T11:56:33.253Z,315.00
2018-05-07T11:57:33.408Z,315.00
2018-05-07T11:58:33.601Z,315.00
2018-05-07T11:59:33.761Z,315.00
2018-05-07T12:00:33.973Z,315.00
2018-05-07T12:01:35.337Z,315.00
2018-05-07T12:02:34.288Z,315.00
2018-05-07T12:03:34.478Z,315.00
2018-05-07T12:04:34.664Z,315.00
2018-05-07T12:05:34.846Z,309.38
2018-05-07T12:06:35.023Z,309.38
2018-05-07T12:07:35.190Z,315.00
2018-05-07T12:08:35.371Z,309.38
2018-05-07T12:09:35.539Z,309.38
2018-05-07T12:10:35.736Z,315.00
2018-05-07T12:11:35.907Z,315.00
2018-05-07T12:12:36.111Z,315.00
2018-05-07T12:13:36.894Z,315.00
2018-05-07T12:14:36.568Z,315.00
2018-05-07T12:15:37.080Z,309.38
2018-05-07T12:16:37.128Z,309.38
2018-05-07T12:17:37.074Z,309.38
2018-05-07T12:18:37.236Z,309.38
2018-05-07T12:19:37.389Z,309.38
2018-05-07T12:20:37.587Z,309.38
2018-05-07T12:21:37.765Z,309.38
2018-05-07T12:22:37.957Z,309.38
2018-05-07T12:23:38.384Z,309.38
2018-05-07T12:24:38.310Z,309.38
2018-05-07T12:25:38.466Z,309.38
2018-05-07T12:26:38.660Z,303.75
2018-05-07T12:27:38.827Z,309.38
2018-05-07T12:28:39.022Z,309.38
2018-05-07T12:29:39.179Z,309.38
2018-05-07T12:30:39.346Z,309.38
2018-05-07T12:31:39.787Z,309.38
2018-05-07T12:32:39.738Z,309.38
2018-05-07T12:33:40.166Z,309.38
2018-05-07T12:34:40.095Z,309.38
2018-05-07T12:35:40.278Z,309.38
2018-05-07T12:36:40.462Z,315.00
2018-05-07T12:37:40.676Z,309.38
2018-05-07T12:38:40.839Z,309.38
2018-05-07T12:39:41.029Z,309.38
2018-05-07T12:40:41.456Z,315.00
2018-05-07T12:41:41.503Z,309.38
2018-05-07T12:42:41.576Z,309.38
2018-05-07T12:43:41.750Z,309.38